Time;durP1;ratioP1;P1;durP2;ratioP2;P2;SDS_P1;SDS_P2;PMS_P1;PMS_P2;Temp;Humidity;BMP_temperature;BMP_pressure;BME280_temperature;BME280_humidity;BME280_pressure;Samples;Min_cycle;Max_cycle;Signal;HPM_P1;HPM_P2
2023/04/10 00:01:00;;;;;;;24.73;20.03;;;9.30;1.00;;;;;;5045510;28;20279;-56
2023/04/10 00:03:26;;;;;;;23.90;19.20;;;9.30;1.00;;;;;;5051769;28;20235;-53
2023/04/10 00:05:53;;;;;;;21.07;17.90;;;9.30;1.00;;;;;;5035455;28;20540;-53
2023/04/10 00:08:22;;;;;;;23.40;19.17;;;9.20;1.00;;;;;;5048704;28;20501;-53
2023/04/10 00:10:48;;;;;;;25.67;20.53;;;9.20;1.00;;;;;;5043389;28;20458;-53
2023/04/10 00:13:15;;;;;;;23.97;19.80;;;9.30;1.00;;;;;;5044881;28;20446;-53
2023/04/10 00:15:40;;;;;;;24.97;20.17;;;9.30;1.00;;;;;;5046510;28;20786;-53
2023/04/10 00:18:06;;;;;;;27.13;22.10;;;9.20;1.00;;;;;;5042530;28;20450;-53
2023/04/10 00:20:32;;;;;;;25.43;19.60;;;9.20;1.00;;;;;;5043961;28;20192;-54
2023/04/10 00:22:57;;;;;;;24.30;21.07;;;9.10;1.00;;;;;;5045551;28;20243;-55
2023/04/10 00:25:23;;;;;;;23.63;20.10;;;9.50;1.00;;;;;;5045171;28;20237;-55
2023/04/10 00:27:49;;;;;;;23.73;19.60;;;9.00;1.00;;;;;;5031736;28;20270;-54
2023/04/10 00:30:14;;;;;;;20.93;18.43;;;8.90;1.00;;;;;;5042518;28;20180;-53
2023/04/10 00:32:40;;;;;;;27.13;21.30;;;8.90;1.00;;;;;;5039795;28;20267;-54
2023/04/10 00:35:07;;;;;;;22.87;19.13;;;8.90;1.00;;;;;;5045672;28;20653;-55
2023/04/10 00:37:33;;;;;;;26.30;20.20;;;8.80;1.00;;;;;;5043929;28;20189;-54
2023/04/10 00:39:59;;;;;;;22.47;19.13;;;8.80;1.00;;;;;;5034730;28;20955;-55
2023/04/10 00:42:25;;;;;;;23.03;19.77;;;8.80;1.00;;;;;;5033869;28;20208;-55
2023/04/10 00:44:50;;;;;;;23.47;20.20;;;8.70;1.00;;;;;;5034339;28;20895;-55
2023/04/10 00:47:16;;;;;;;25.37;20.10;;;8.60;1.00;;;;;;5032038;28;20266;-55
2023/04/10 00:49:42;;;;;;;28.43;21.90;;;8.60;1.00;;;;;;5034556;28;20188;-55
2023/04/10 00:52:08;;;;;;;30.30;23.87;;;8.60;1.00;;;;;;5043068;28;20707;-56
2023/04/10 00:54:35;;;;;;;27.33;22.70;;;8.60;1.00;;;;;;5052709;28;20486;-54
2023/04/10 00:57:03;;;;;;;26.70;21.93;;;8.50;1.00;;;;;;5051320;28;20483;-54
2023/04/10 00:59:29;;;;;;;28.37;22.23;;;8.50;1.00;;;;;;5043078;28;20952;-53
2023/04/10 01:01:55;;;;;;;27.93;22.37;;;8.60;1.00;;;;;;5038314;28;20451;-55
2023/04/10 01:04:22;;;;;;;34.53;23.30;;;8.60;1.00;;;;;;5040850;28;20477;-54
2023/04/10 01:07:14;;;;;;;31.77;23.00;;;8.70;1.00;;;;;;5033836;28;20238;-53
2023/04/10 01:10:08;;;;;;;31.63;23.10;;;8.60;1.00;;;;;;5042167;28;20956;-54
2023/04/10 01:12:49;;;;;;;28.70;21.40;;;8.50;1.00;;;;;;5059738;28;20451;-53
2023/04/10 01:15:24;;;;;;;31.57;23.07;;;8.40;1.00;;;;;;5044246;28;20554;-53
2023/04/10 01:17:59;;;;;;;29.33;22.60;;;8.40;1.00;;;;;;5043347;28;20495;-53
2023/04/10 01:20:31;;;;;;;30.50;22.43;;;8.30;1.00;;;;;;5047562;28;20441;-54
2023/04/10 01:23:19;;;;;;;26.70;21.43;;;8.20;1.00;;;;;;5048108;28;20489;-52
2023/04/10 01:26:04;;;;;;;37.27;24.37;;;8.30;1.00;;;;;;5043744;28;20451;-52
2023/04/10 01:28:53;;;;;;;34.00;23.83;;;8.30;1.00;;;;;;5045281;28;20442;-54
2023/04/10 01:31:28;;;;;;;28.40;22.30;;;8.20;1.00;;;;;;5047518;28;20500;-53
2023/04/10 01:33:59;;;;;;;38.00;25.10;;;8.20;1.00;;;;;;5045518;28;20457;-53
2023/04/10 01:36:29;;;;;;;30.20;21.53;;;8.10;1.00;;;;;;5055932;28;20489;-52
2023/04/10 01:38:56;;;;;;;27.37;22.63;;;8.10;1.00;;;;;;5042065;28;20454;-51
2023/04/10 01:41:23;;;;;;;30.60;23.67;;;8.30;1.00;;;;;;5046474;28;20504;-54
2023/04/10 01:43:51;;;;;;;30.80;23.20;;;8.20;1.00;;;;;;5040329;28;20536;-53
2023/04/10 01:46:21;;;;;;;33.33;25.13;;;8.10;1.00;;;;;;5045885;28;20539;-55
2023/04/10 01:48:48;;;;;;;30.90;22.50;;;8.10;1.00;;;;;;5046017;28;20457;-55
2023/04/10 01:51:16;;;;;;;31.37;23.10;;;8.10;1.00;;;;;;5045567;28;20439;-53
2023/04/10 01:53:44;;;;;;;31.03;22.80;;;8.10;1.00;;;;;;5048945;28;20461;-54
2023/04/10 01:56:12;;;;;;;31.10;23.30;;;8.10;1.00;;;;;;5041757;28;20466;-56
2023/04/10 01:58:37;;;;;;;34.67;26.37;;;8.10;1.00;;;;;;5048724;28;20439;-52
2023/04/10 02:01:03;;;;;;;42.00;27.47;;;8.10;1.00;;;;;;5048197;28;20982;-53
2023/04/10 02:03:29;;;;;;;38.30;26.60;;;8.00;1.00;;;;;;5045588;28;20212;-54
2023/04/10 02:06:20;;;;;;;35.77;23.73;;;7.90;1.00;;;;;;5041823;28;20271;-54
2023/04/10 02:09:08;;;;;;;34.73;25.13;;;7.90;1.00;;;;;;5041801;28;20597;-55
2023/04/10 02:11:43;;;;;;;29.67;24.50;;;7.90;1.00;;;;;;5049264;28;20527;-56
2023/04/10 02:14:15;;;;;;;29.23;23.00;;;7.80;1.00;;;;;;5046634;28;20446;-52
2023/04/10 02:16:42;;;;;;;32.83;22.43;;;7.70;1.00;;;;;;5048212;28;20527;-55
2023/04/10 02:19:09;;;;;;;31.60;22.20;;;7.70;1.00;;;;;;5045125;28;20462;-53
2023/04/10 02:21:36;;;;;;;33.50;23.47;;;7.70;1.00;;;;;;5047447;28;20799;-53
2023/04/10 02:24:02;;;;;;;31.03;24.03;;;7.70;1.00;;;;;;5046199;28;20615;-52
2023/04/10 02:26:28;;;;;;;28.00;23.60;;;7.70;1.00;;;;;;5050858;28;20574;-53
2023/04/10 02:28:54;;;;;;;32.80;23.90;;;7.60;1.00;;;;;;5043189;28;20482;-54
2023/04/10 02:31:20;;;;;;;26.90;23.07;;;7.50;1.00;;;;;;5043242;28;20200;-54
2023/04/10 02:33:46;;;;;;;30.97;23.70;;;7.50;1.00;;;;;;5044304;28;20439;-52
2023/04/10 02:36:11;;;;;;;28.17;23.67;;;7.40;1.00;;;;;;5044819;28;20189;-53
2023/04/10 02:38:37;;;;;;;29.63;24.40;;;7.40;1.00;;;;;;5041912;28;20952;-53
2023/04/10 02:41:03;;;;;;;28.00;22.00;;;7.40;1.00;;;;;;5041008;28;20279;-53
2023/04/10 02:43:28;;;;;;;31.07;24.50;;;7.40;1.00;;;;;;5041830;28;20220;-55
2023/04/10 02:45:54;;;;;;;26.17;22.70;;;7.40;1.00;;;;;;5043823;28;20438;-55
2023/04/10 02:48:20;;;;;;;31.90;23.67;;;7.30;1.00;;;;;;5047441;28;20188;-53
2023/04/10 02:50:46;;;;;;;30.90;24.23;;;7.30;1.00;;;;;;5040499;28;20266;-53
2023/04/10 02:53:15;;;;;;;32.30;24.57;;;7.40;1.00;;;;;;5045591;28;20454;-53
2023/04/10 02:55:41;;;;;;;31.40;24.27;;;7.30;1.00;;;;;;5048352;28;20467;-52
2023/04/10 02:58:07;;;;;;;30.67;24.27;;;7.30;1.00;;;;;;5047710;28;20816;-55
2023/04/10 03:00:32;;;;;;;29.83;23.33;;;7.40;1.00;;;;;;5050739;28;20781;-54
2023/04/10 03:02:58;;;;;;;29.57;23.40;;;7.50;1.00;;;;;;5044922;28;20682;-54
2023/04/10 03:05:24;;;;;;;29.93;24.27;;;7.50;1.00;;;;;;5048271;28;20195;-53
2023/04/10 03:07:49;;;;;;;27.63;22.97;;;7.50;1.00;;;;;;5043336;28;20192;-54
2023/04/10 03:10:15;;;;;;;29.70;23.47;;;7.50;1.00;;;;;;5040688;28;20215;-53
2023/04/10 03:12:41;;;;;;;32.57;25.00;;;7.60;1.00;;;;;;5045992;28;20195;-54
2023/04/10 03:15:07;;;;;;;31.93;24.70;;;7.60;1.00;;;;;;5048623;28;20245;-53
2023/04/10 03:17:33;;;;;;;27.47;23.20;;;7.70;1.00;;;;;;5040771;28;20247;-53
2023/04/10 03:19:59;;;;;;;29.60;23.33;;;7.80;1.00;;;;;;5033486;28;20455;-52
2023/04/10 03:22:26;;;;;;;28.30;23.63;;;7.80;1.00;;;;;;5034204;28;20490;-54
2023/04/10 03:24:51;;;;;;;32.40;24.53;;;7.90;1.00;;;;;;5032341;28;20542;-53
2023/04/10 03:27:17;;;;;;;30.70;22.37;;;8.00;1.00;;;;;;5032472;28;20447;-53
2023/04/10 03:29:43;;;;;;;29.97;23.23;;;8.10;1.00;;;;;;5032184;28;20229;-53
2023/04/10 03:32:09;;;;;;;30.27;24.03;;;8.10;1.00;;;;;;5034158;28;21030;-54
2023/04/10 03:34:35;;;;;;;25.23;22.20;;;8.00;1.00;;;;;;5046726;28;20292;-54
2023/04/10 03:37:01;;;;;;;27.20;22.33;;;7.90;1.00;;;;;;5044680;28;20208;-52
2023/04/10 03:39:28;;;;;;;28.93;23.23;;;8.00;1.00;;;;;;5048551;28;20455;-53
2023/04/10 03:41:53;;;;;;;27.60;21.77;;;8.00;1.00;;;;;;5047823;28;20435;-53
2023/04/10 03:44:19;;;;;;;30.10;23.60;;;8.00;1.00;;;;;;5045980;28;20836;-53
2023/04/10 03:46:44;;;;;;;28.70;22.20;;;7.90;1.00;;;;;;5032890;28;20197;-52
2023/04/10 03:49:10;;;;;;;27.33;22.30;;;7.80;1.00;;;;;;5036749;28;20184;-53
2023/04/10 03:51:36;;;;;;;31.80;23.57;;;7.80;1.00;;;;;;5041434;28;20197;-52
2023/04/10 03:54:01;;;;;;;30.73;23.60;;;7.70;1.00;;;;;;5047074;28;20234;-53
2023/04/10 03:56:27;;;;;;;28.07;22.70;;;7.60;1.00;;;;;;5040662;28;20280;-54
2023/04/10 03:58:53;;;;;;;30.43;21.90;;;7.60;1.00;;;;;;5038450;28;20283;-53
2023/04/10 04:01:18;;;;;;;26.80;21.13;;;7.50;1.00;;;;;;5045609;28;20223;-55
2023/04/10 04:03:44;;;;;;;29.13;22.30;;;7.50;1.00;;;;;;5038530;28;20669;-52
2023/04/10 04:06:09;;;;;;;28.00;20.33;;;7.40;1.00;;;;;;5038355;28;20207;-53
2023/04/10 04:08:37;;;;;;;31.67;24.17;;;7.50;1.00;;;;;;5036100;28;20227;-54
2023/04/10 04:11:03;;;;;;;30.30;24.17;;;7.40;1.00;;;;;;5036660;28;20180;-52
2023/04/10 04:13:28;;;;;;;29.67;23.10;;;7.40;1.00;;;;;;5043152;28;20454;-52
2023/04/10 04:15:54;;;;;;;28.23;21.20;;;7.40;1.00;;;;;;5039897;28;20192;-53
2023/04/10 04:18:20;;;;;;;28.00;22.10;;;7.30;1.00;;;;;;5036864;28;20205;-54
2023/04/10 04:20:45;;;;;;;30.20;22.53;;;7.30;1.00;;;;;;5043305;28;20624;-53
2023/04/10 04:23:11;;;;;;;28.50;22.60;;;7.20;1.00;;;;;;5043534;28;20212;-53
2023/04/10 04:25:37;;;;;;;26.00;20.90;;;7.30;1.00;;;;;;5042839;28;20242;-54
2023/04/10 04:28:02;;;;;;;30.97;23.50;;;7.40;1.00;;;;;;5038824;28;20234;-54
2023/04/10 04:30:28;;;;;;;28.53;22.37;;;7.50;1.00;;;;;;5043552;28;20222;-53
2023/04/10 04:32:54;;;;;;;26.10;21.03;;;7.50;1.00;;;;;;5042971;28;20192;-53
2023/04/10 04:35:19;;;;;;;29.10;21.43;;;7.60;1.00;;;;;;5039938;28;20230;-52
2023/04/10 04:37:45;;;;;;;27.03;21.47;;;7.50;1.00;;;;;;5044100;28;20200;-53
2023/04/10 04:40:11;;;;;;;28.27;21.67;;;7.60;1.00;;;;;;5044724;28;20284;-53
2023/04/10 04:42:36;;;;;;;27.67;22.27;;;7.50;1.00;;;;;;5048692;28;20847;-52
2023/04/10 04:45:02;;;;;;;23.93;20.40;;;7.60;1.00;;;;;;5046996;28;20515;-51
2023/04/10 04:47:28;;;;;;;27.67;21.87;;;7.60;1.00;;;;;;5031180;28;20184;-54
2023/04/10 04:49:53;;;;;;;30.40;22.60;;;7.60;1.00;;;;;;5031539;28;20189;-54
2023/04/10 04:52:19;;;;;;;31.37;20.87;;;7.60;1.00;;;;;;5032554;28;20551;-53
2023/04/10 04:54:45;;;;;;;27.70;21.80;;;7.70;1.00;;;;;;5031872;28;20315;-54
2023/04/10 04:57:10;;;;;;;27.50;22.77;;;7.70;1.00;;;;;;5039059;28;20181;-53
2023/04/10 04:59:37;;;;;;;26.50;20.90;;;7.70;1.00;;;;;;5053338;28;20297;-53
2023/04/10 05:02:02;;;;;;;28.73;22.07;;;7.80;1.00;;;;;;5053575;28;20713;-54
2023/04/10 05:04:28;;;;;;;32.77;22.87;;;7.70;1.00;;;;;;5043822;28;20557;-53
2023/04/10 05:06:53;;;;;;;26.87;21.70;;;7.70;1.00;;;;;;5041167;28;20212;-52
2023/04/10 05:09:19;;;;;;;26.60;21.03;;;7.70;1.00;;;;;;5044350;28;20197;-52
2023/04/10 05:11:45;;;;;;;27.13;22.30;;;7.70;1.00;;;;;;5040657;28;20191;-57
2023/04/10 05:14:10;;;;;;;28.50;21.60;;;7.70;1.00;;;;;;5043799;28;20198;-54
2023/04/10 05:16:36;;;;;;;25.47;21.03;;;7.90;1.00;;;;;;5043616;28;20193;-53
2023/04/10 05:19:01;;;;;;;26.63;21.23;;;7.90;1.00;;;;;;5044817;28;20189;-54
2023/04/10 05:21:27;;;;;;;31.30;22.53;;;7.90;1.00;;;;;;5035154;28;20183;-54
2023/04/10 05:23:53;;;;;;;25.97;20.80;;;7.90;1.00;;;;;;5045154;28;20239;-53
2023/04/10 05:26:19;;;;;;;28.47;21.90;;;7.90;1.00;;;;;;5040985;28;20314;-53
2023/04/10 05:28:44;;;;;;;27.80;21.17;;;7.80;1.00;;;;;;5042901;28;20197;-54
2023/04/10 05:31:10;;;;;;;29.17;22.43;;;7.90;1.00;;;;;;5040576;28;20453;-55
2023/04/10 05:33:36;;;;;;;27.30;20.10;;;7.90;1.00;;;;;;5039384;28;20220;-53
2023/04/10 05:36:01;;;;;;;26.03;20.97;;;8.00;1.00;;;;;;5044037;28;20210;-53
2023/04/10 05:38:27;;;;;;;25.00;18.67;;;8.10;1.00;;;;;;5041009;28;20188;-53
2023/04/10 05:40:53;;;;;;;25.40;21.37;;;8.10;1.00;;;;;;5045372;28;20277;-53
2023/04/10 05:43:20;;;;;;;22.80;19.30;;;8.20;1.00;;;;;;5047505;28;20596;-54
2023/04/10 05:45:46;;;;;;;29.33;20.97;;;8.30;1.00;;;;;;5051108;28;21142;-52
2023/04/10 05:48:11;;;;;;;24.87;19.03;;;8.40;1.00;;;;;;5047269;28;20538;-52
2023/04/10 05:50:37;;;;;;;25.10;20.70;;;8.60;1.00;;;;;;5044196;28;20199;-54
2023/04/10 05:53:03;;;;;;;25.40;20.20;;;8.70;1.00;;;;;;5047910;28;20193;-52
2023/04/10 05:55:30;;;;;;;22.73;18.90;;;8.90;1.00;;;;;;5044031;28;20686;-53
2023/04/10 05:57:56;;;;;;;20.50;17.80;;;9.00;1.00;;;;;;5045301;28;20573;-54
2023/04/10 06:00:22;;;;;;;22.70;18.90;;;9.00;1.00;;;;;;5044093;28;20645;-53
2023/04/10 06:02:48;;;;;;;22.93;18.17;;;9.10;1.00;;;;;;5049475;28;20196;-54
2023/04/10 06:05:14;;;;;;;23.20;18.13;;;9.30;1.00;;;;;;5047848;28;20211;-55
2023/04/10 06:07:40;;;;;;;20.17;16.57;;;9.40;1.00;;;;;;5048604;28;20449;-54
2023/04/10 06:10:06;;;;;;;25.97;19.43;;;9.50;1.00;;;;;;5047526;28;20979;-56
2023/04/10 06:12:32;;;;;;;24.90;18.87;;;9.70;1.00;;;;;;5044217;28;20204;-53
2023/04/10 06:14:57;;;;;;;21.57;18.90;;;9.90;1.00;;;;;;5050154;28;20537;-53
2023/04/10 06:17:24;;;;;;;19.20;16.97;;;9.90;1.00;;;;;;5044624;28;20292;-52
2023/04/10 06:19:50;;;;;;;19.33;16.40;;;10.00;1.00;;;;;;5049058;28;20302;-55
2023/04/10 06:22:15;;;;;;;21.77;16.40;;;9.90;1.00;;;;;;5042148;28;20497;-52
2023/04/10 06:24:41;;;;;;;21.30;17.83;;;9.90;1.00;;;;;;5043463;28;20200;-55
2023/04/10 06:27:07;;;;;;;23.70;19.17;;;9.90;1.00;;;;;;5045322;28;20189;-53
2023/04/10 06:29:33;;;;;;;19.20;16.60;;;9.90;1.00;;;;;;5044905;28;20184;-53
2023/04/10 06:31:59;;;;;;;20.77;17.30;;;9.90;1.00;;;;;;5044070;28;20820;-53
2023/04/10 06:34:25;;;;;;;22.60;18.00;;;10.00;1.00;;;;;;5046732;28;20185;-56
2023/04/10 06:36:50;;;;;;;22.57;18.03;;;10.10;1.00;;;;;;5046364;28;20450;-53
2023/04/10 06:39:16;;;;;;;21.43;18.40;;;10.30;1.00;;;;;;5048630;28;20199;-54
2023/04/10 06:41:42;;;;;;;20.40;17.23;;;10.50;1.00;;;;;;5045705;28;20853;-53
2023/04/10 06:44:07;;;;;;;20.57;17.67;;;10.70;1.00;;;;;;5049952;28;20466;-54
2023/04/10 06:46:33;;;;;;;21.23;16.73;;;10.80;1.00;;;;;;5049913;28;20319;-54
2023/04/10 06:48:59;;;;;;;21.43;17.43;;;10.90;1.00;;;;;;5048909;28;20203;-52
2023/04/10 06:51:24;;;;;;;22.20;17.70;;;11.00;1.00;;;;;;5047565;28;20177;-54
2023/04/10 06:53:50;;;;;;;21.00;17.40;;;11.20;1.00;;;;;;5050450;28;20196;-53
2023/04/10 06:56:16;;;;;;;21.57;17.60;;;11.30;1.00;;;;;;5053510;28;20227;-53
2023/04/10 06:58:41;;;;;;;20.67;17.40;;;11.40;1.00;;;;;;5047872;28;20202;-53
2023/04/10 07:01:07;;;;;;;21.63;17.97;;;11.60;1.00;;;;;;5045257;28;20192;-53
2023/04/10 07:03:32;;;;;;;22.17;17.00;;;11.80;1.00;;;;;;5042924;28;20362;-53
2023/04/10 07:06:00;;;;;;;24.97;17.93;;;11.90;1.00;;;;;;5046085;28;20262;-55
2023/04/10 07:08:26;;;;;;;20.07;16.43;;;12.00;1.00;;;;;;5044186;28;20974;-54
2023/04/10 07:10:52;;;;;;;20.77;18.57;;;12.10;1.00;;;;;;5042784;28;20482;-54
2023/04/10 07:13:17;;;;;;;20.10;17.63;;;12.30;1.00;;;;;;5045657;28;20192;-54
2023/04/10 07:15:43;;;;;;;19.67;17.57;;;12.50;1.00;;;;;;5038097;28;20197;-53
2023/04/10 07:18:08;;;;;;;22.53;19.27;;;12.60;1.00;;;;;;5047766;28;20185;-55
2023/04/10 07:20:34;;;;;;;19.20;16.70;;;12.70;1.00;;;;;;5041475;28;20192;-53
2023/04/10 07:23:00;;;;;;;20.40;17.50;;;12.70;1.00;;;;;;5042450;28;20307;-53
2023/04/10 07:25:25;;;;;;;23.63;18.00;;;12.70;1.00;;;;;;5040357;28;20302;-56
2023/04/10 07:27:51;;;;;;;19.40;17.00;;;12.70;1.00;;;;;;5041202;28;20246;-56
2023/04/10 07:30:18;;;;;;;21.60;18.90;;;12.80;1.00;;;;;;5047961;28;20572;-55
2023/04/10 07:32:44;;;;;;;23.13;17.53;;;12.90;99.90;;;;;;5039506;28;20195;-53
2023/04/10 07:35:10;;;;;;;21.20;17.60;;;12.90;99.90;;;;;;5038037;28;20486;-53
2023/04/10 07:37:36;;;;;;;18.53;16.63;;;13.20;99.90;;;;;;5040692;28;20478;-54
2023/04/10 07:40:02;;;;;;;19.83;17.17;;;13.30;99.90;;;;;;5043737;28;20204;-53
2023/04/10 07:42:27;;;;;;;21.67;17.53;;;13.40;99.90;;;;;;5046698;28;20223;-54
2023/04/10 07:44:53;;;;;;;21.30;17.20;;;13.70;99.90;;;;;;5042547;28;20447;-53
2023/04/10 07:47:18;;;;;;;21.70;17.57;;;13.80;99.90;;;;;;5045934;28;20191;-53
2023/04/10 07:49:44;;;;;;;17.13;15.27;;;13.90;99.90;;;;;;5042218;28;20711;-54
2023/04/10 07:52:10;;;;;;;22.10;16.97;;;14.00;99.90;;;;;;5046438;28;20181;-53
2023/04/10 07:54:35;;;;;;;18.20;15.40;;;14.20;99.90;;;;;;5047409;28;20350;-53
2023/04/10 07:57:01;;;;;;;19.70;16.50;;;14.20;99.90;;;;;;5048057;28;20581;-55
2023/04/10 07:59:27;;;;;;;18.37;15.63;;;14.20;99.90;;;;;;5047043;28;20200;-55
2023/04/10 08:01:54;;;;;;;18.23;16.43;;;14.30;99.90;;;;;;5040453;28;20189;-56
2023/04/10 08:04:19;;;;;;;20.37;18.17;;;14.50;99.90;;;;;;5044513;28;20547;-53
2023/04/10 08:06:45;;;;;;;18.43;16.40;;;14.60;99.90;;;;;;5040268;28;20447;-54
2023/04/10 08:09:10;;;;;;;19.37;17.30;;;14.70;99.90;;;;;;5047948;28;20180;-54
2023/04/10 08:11:36;;;;;;;18.60;16.60;;;14.90;99.90;;;;;;5047699;28;20258;-54
2023/04/10 08:14:02;;;;;;;18.93;16.90;;;14.90;99.90;;;;;;5048384;28;20203;-55
2023/04/10 08:16:31;;;;;;;17.83;16.00;;;14.80;99.90;;;;;;5054667;28;20246;-54
2023/04/10 08:18:58;;;;;;;20.30;16.50;;;15.00;99.90;;;;;;5047672;28;20527;-55
2023/04/10 08:21:26;;;;;;;18.70;16.23;;;15.40;99.90;;;;;;5049160;28;20493;-54
2023/04/10 08:23:56;;;;;;;20.50;17.43;;;15.60;99.90;;;;;;5048210;28;20475;-54
2023/04/10 08:26:22;;;;;;;17.77;15.83;;;15.60;99.90;;;;;;5055515;28;20472;-53
2023/04/10 08:28:50;;;;;;;18.70;16.70;;;15.80;99.90;;;;;;5055902;28;20453;-55
2023/04/10 08:31:16;;;;;;;20.33;16.93;;;15.80;99.90;;;;;;5046455;28;20534;-54
2023/04/10 08:33:42;;;;;;;19.43;16.60;;;15.90;99.90;;;;;;5048255;28;20956;-53
2023/04/10 08:36:08;;;;;;;19.87;16.43;;;16.00;99.90;;;;;;5044297;28;20454;-58
2023/04/10 08:38:34;;;;;;;19.47;16.20;;;16.00;99.90;;;;;;5042546;28;20225;-53
2023/04/10 08:40:59;;;;;;;20.30;17.43;;;16.00;99.90;;;;;;5042364;28;20451;-53
2023/04/10 08:43:26;;;;;;;17.90;16.00;;;16.10;99.90;;;;;;5044440;28;20269;-52
2023/04/10 08:45:52;;;;;;;19.93;17.33;;;16.50;99.90;;;;;;5047889;28;20657;-54
2023/04/10 08:48:20;;;;;;;18.20;16.20;;;16.60;99.90;;;;;;5040407;28;20446;-54
2023/04/10 08:50:48;;;;;;;19.50;15.83;;;16.80;99.90;;;;;;5044877;28;20904;-55
2023/04/10 08:53:15;;;;;;;18.10;15.97;;;16.80;99.90;;;;;;5041386;28;20444;-54
2023/04/10 08:55:43;;;;;;;18.90;16.50;;;16.90;99.90;;;;;;5044351;28;21041;-54
2023/04/10 08:58:10;;;;;;;19.60;17.40;;;16.90;99.90;;;;;;5040480;28;20451;-55
2023/04/10 09:00:38;;;;;;;20.73;16.90;;;17.00;99.90;;;;;;5041306;28;20546;-55
2023/04/10 09:03:10;;;;;;;18.70;16.77;;;17.10;99.90;;;;;;5060466;28;20544;-55
2023/04/10 09:05:36;;;;;;;18.53;15.80;;;17.00;99.90;;;;;;5041728;28;20450;-52
2023/04/10 09:08:07;;;;;;;19.50;16.40;;;17.00;99.90;;;;;;5047043;28;20447;-54
2023/04/10 09:10:33;;;;;;;18.37;14.37;;;17.10;99.90;;;;;;5047453;28;20439;-54
2023/04/10 09:12:59;;;;;;;16.50;14.57;;;17.20;99.90;;;;;;5045186;28;20443;-53
2023/04/10 09:15:25;;;;;;;18.27;15.47;;;17.50;99.90;;;;;;5047685;28;20434;-53
2023/04/10 09:17:58;;;;;;;17.77;15.10;;;18.00;99.90;;;;;;5045288;28;20505;-54
2023/04/10 09:20:25;;;;;;;15.40;13.77;;;18.00;99.90;;;;;;5067877;28;20192;-54
2023/04/10 09:22:51;;;;;;;15.87;12.70;;;17.80;99.90;;;;;;5056567;28;20472;-54
2023/04/10 09:25:35;;;;;;;16.93;15.13;;;17.70;99.90;;;;;;5051177;28;20451;-54
2023/04/10 09:28:06;;;;;;;15.40;13.80;;;17.50;99.90;;;;;;5049034;28;20481;-54
2023/04/10 09:30:39;;;;;;;15.47;13.83;;;17.60;99.90;;;;;;5050632;28;20932;-53
2023/04/10 09:33:22;;;;;;;15.23;13.43;;;17.70;99.90;;;;;;5056134;28;20499;-54
2023/04/10 09:35:48;;;;;;;14.60;12.63;;;17.70;99.90;;;;;;5054734;28;20533;-54
2023/04/10 09:38:16;;;;;;;14.33;12.83;;;17.80;99.90;;;;;;5062753;28;20939;-55
2023/04/10 09:40:42;;;;;;;14.40;12.87;;;17.90;99.90;;;;;;5051623;28;20442;-54
2023/04/10 09:43:22;;;;;;;14.90;12.90;;;18.20;99.90;;;;;;5057014;28;20465;-54
2023/04/10 09:45:56;;;;;;;13.77;12.37;;;18.20;99.90;;;;;;5044443;28;20471;-55
2023/04/10 09:48:23;;;;;;;12.90;11.40;;;18.30;99.90;;;;;;5051924;28;20885;-55
2023/04/10 09:50:49;;;;;;;12.70;11.40;;;18.20;99.90;;;;;;5043108;28;21487;-54
2023/04/10 09:53:20;;;;;;;11.77;10.57;;;18.20;99.90;;;;;;5026714;28;20452;-54
2023/04/10 09:55:47;;;;;;;12.37;9.77;;;18.20;99.90;;;;;;5059157;28;20485;-54
2023/04/10 09:58:14;;;;;;;10.70;9.60;;;17.80;99.90;;;;;;5047318;28;21168;-53
2023/04/10 10:00:45;;;;;;;11.17;10.07;;;17.60;99.90;;;;;;5054726;28;20842;-54
2023/04/10 10:03:17;;;;;;;10.93;9.80;;;17.70;99.90;;;;;;5063303;28;20959;-55
2023/04/10 10:05:50;;;;;;;10.73;9.63;;;17.90;99.90;;;;;;5034642;28;20471;-53
2023/04/10 10:08:17;;;;;;;13.23;11.70;;;18.30;99.90;;;;;;5051656;28;20454;-54
2023/04/10 10:10:55;;;;;;;12.50;11.20;;;18.30;99.90;;;;;;5070615;28;20442;-55
2023/04/10 10:13:34;;;;;;;10.83;9.73;;;18.30;99.90;;;;;;5038704;28;20450;-54
2023/04/10 10:16:22;;;;;;;10.00;9.00;;;18.60;99.90;;;;;;5049506;28;20457;-56
2023/04/10 10:19:19;;;;;;;11.47;10.37;;;18.80;99.90;;;;;;5038407;28;20457;-56
2023/04/10 10:21:45;;;;;;;12.93;11.57;;;19.10;99.90;;;;;;5025968;28;20459;-54
2023/04/10 10:24:12;;;;;;;13.43;12.03;;;19.40;99.90;;;;;;5049754;28;20470;-54
2023/04/10 10:26:38;;;;;;;15.00;13.50;;;19.40;99.90;;;;;;5043903;28;20439;-55
2023/04/10 10:29:09;;;;;;;14.33;12.83;;;18.90;99.90;;;;;;5044682;28;20455;-55
2023/04/10 10:31:36;;;;;;;14.40;12.83;;;18.30;99.90;;;;;;5048557;28;20445;-55
2023/04/10 10:34:07;;;;;;;13.47;12.10;;;18.20;99.90;;;;;;5044307;28;20481;-54
2023/04/10 10:36:37;;;;;;;11.57;10.43;;;18.10;99.90;;;;;;5042299;28;21067;-53
2023/04/10 10:39:33;;;;;;;12.47;11.27;;;17.90;99.90;;;;;;5031898;28;20447;-53
2023/04/10 10:42:14;;;;;;;11.67;10.57;;;18.10;99.90;;;;;;5027902;28;20581;-54
2023/04/10 10:44:46;;;;;;;13.17;11.87;;;18.30;99.90;;;;;;5031300;28;20979;-56
2023/04/10 10:47:18;;;;;;;14.07;11.33;;;18.30;99.90;;;;;;5040768;28;20475;-54
2023/04/10 10:49:52;;;;;;;14.37;12.00;;;18.50;99.90;;;;;;5036533;28;20526;-55
2023/04/10 10:52:36;;;;;;;12.20;11.00;;;18.70;99.90;;;;;;5048114;28;20447;-54
2023/04/10 10:55:23;;;;;;;13.00;11.70;;;18.70;99.90;;;;;;5046150;28;20482;-53
2023/04/10 10:57:49;;;;;;;14.17;12.70;;;18.90;99.90;;;;;;5036529;28;20439;-53
2023/04/10 11:00:15;;;;;;;12.97;11.57;;;19.30;99.90;;;;;;5041808;28;21114;-53
2023/04/10 11:02:41;;;;;;;12.40;11.10;;;19.50;99.90;;;;;;5037160;28;22195;-55
2023/04/10 11:05:07;;;;;;;12.60;10.70;;;19.60;99.90;;;;;;5032725;28;20553;-55
2023/04/10 11:07:57;;;;;;;11.70;10.53;;;19.80;99.90;;;;;;5048308;28;20231;-54
2023/04/10 11:11:04;;;;;;;11.80;10.60;;;20.10;99.90;;;;;;5042203;28;20268;-55
2023/04/10 11:13:31;;;;;;;10.53;9.63;;;19.60;99.90;;;;;;5052617;28;20435;-55
2023/04/10 11:15:57;;;;;;;10.77;9.77;;;19.00;99.90;;;;;;5034210;28;20882;-54
2023/04/10 11:18:45;;;;;;;12.47;10.57;;;18.70;99.90;;;;;;5041040;28;20804;-54
2023/04/10 11:21:22;;;;;;;9.90;8.90;;;18.80;99.90;;;;;;5046145;28;20524;-54
2023/04/10 11:23:57;;;;;;;10.43;9.43;;;18.80;99.90;;;;;;5046625;28;20580;-54
2023/04/10 11:29:16;;;;;;;11.67;10.20;;;18.80;99.90;;;;;;5046483;28;20446;-54
2023/04/10 11:32:04;;;;;;;11.67;10.47;;;18.80;99.90;;;;;;5038306;28;20471;-54
2023/04/10 11:34:31;;;;;;;10.60;9.50;;;19.30;99.90;;;;;;5047938;28;20522;-54
2023/04/10 11:37:00;;;;;;;11.40;10.30;;;19.40;99.90;;;;;;5028941;28;20447;-55
2023/04/10 11:39:26;;;;;;;11.50;10.40;;;19.20;99.90;;;;;;5035388;28;20504;-54
2023/04/10 11:41:53;;;;;;;12.43;11.23;;;18.90;99.90;;;;;;5039704;28;21212;-55
2023/04/10 11:44:30;;;;;;;11.00;9.87;;;19.00;99.90;;;;;;5045374;28;20466;-54
2023/04/10 11:46:57;;;;;;;12.10;11.00;;;19.20;99.90;;;;;;5046821;28;21015;-53
2023/04/10 11:49:28;;;;;;;11.23;10.13;;;19.30;99.90;;;;;;5055001;28;20446;-54
2023/04/10 11:51:54;;;;;;;11.90;10.80;;;19.60;99.90;;;;;;5047215;28;20592;-55
2023/04/10 11:54:28;;;;;;;14.30;12.37;;;19.80;99.90;;;;;;5047956;28;20565;-54
2023/04/10 11:57:03;;;;;;;14.33;12.83;;;19.60;99.90;;;;;;5056180;28;20997;-54
2023/04/10 11:59:31;;;;;;;15.27;13.60;;;19.30;99.90;;;;;;5048269;28;20475;-55
2023/04/10 12:02:09;;;;;;;16.63;12.90;;;19.30;99.90;;;;;;5047129;28;20494;-54
2023/04/10 12:04:35;;;;;;;16.60;11.90;;;19.10;99.90;;;;;;5048789;28;20509;-56
2023/04/10 12:07:01;;;;;;;12.47;11.17;;;19.00;99.90;;;;;;5044300;28;20505;-54
2023/04/10 12:09:27;;;;;;;14.80;13.30;;;19.20;99.90;;;;;;5047808;28;20876;-54
2023/04/10 12:11:55;;;;;;;12.60;11.10;;;19.30;99.90;;;;;;5046975;28;20473;-55
2023/04/10 12:14:22;;;;;;;14.43;11.57;;;19.40;99.90;;;;;;5051026;28;20439;-53
2023/04/10 12:16:48;;;;;;;14.27;11.87;;;19.50;99.90;;;;;;5050036;28;20453;-54
2023/04/10 12:19:15;;;;;;;12.77;11.47;;;19.60;99.90;;;;;;5048593;28;20565;-55
2023/04/10 12:21:42;;;;;;;12.83;11.47;;;19.70;99.90;;;;;;5047678;28;20442;-52
2023/04/10 12:24:08;;;;;;;13.43;10.37;;;19.90;99.90;;;;;;5049706;28;20467;-54
2023/04/10 12:26:34;;;;;;;11.93;10.30;;;20.10;99.90;;;;;;5043862;28;20439;-53
2023/04/10 12:29:00;;;;;;;11.77;10.57;;;20.10;99.90;;;;;;5045518;28;20445;-54
2023/04/10 12:31:30;;;;;;;11.27;10.20;;;20.00;99.90;;;;;;5042218;28;20657;-55
2023/04/10 12:33:57;;;;;;;11.73;10.43;;;19.90;99.90;;;;;;5046098;28;20875;-55
2023/04/10 12:36:29;;;;;;;11.60;9.90;;;19.90;99.90;;;;;;5047573;28;20446;-53
2023/04/10 12:39:16;;;;;;;12.33;11.03;;;19.70;99.90;;;;;;5048737;28;20510;-54
2023/04/10 12:41:41;;;;;;;12.33;10.97;;;19.60;99.90;;;;;;5043157;28;20458;-54
2023/04/10 12:44:11;;;;;;;9.53;8.53;;;19.60;99.90;;;;;;5046244;28;20445;-55
2023/04/10 12:46:38;;;;;;;10.10;9.00;;;19.60;99.90;;;;;;5044501;28;20318;-54